Weather at Chance Airport

Public forecast

Using degrees Fahrenheit for public forecast. Weather courtesy of forecast.io.

Closest aviation weather report (METAR) to Chance Airport

Closest report is Accomack County Airport, 9.3 nm (17.2 km) ENE. Retrieved 2020/09/20 19:15 UTC (0 seconds ago):

KMFV 201915Z AUTO 05014G25KT 10SM SCT041 SCT046 OVC075 19/08 A3041 RMK AO2 T01860081

Closest aviation forecast (TAF) to Chance Airport

Forecast is more than 12 hours old.

Closest forecast is Langley Air Force Base, 35.6 nm (65.9 km) SW. Retrieved 2020/09/19 18:30 UTC (1 day ago):

TAF KLFI 191800Z 1918/2024 03015G25KT 9999 FEW028 SCT140 BKN200 510005 QNH3024INS BECMG 2014/2015 04015G25KT 9999 FEW035 510003 QNH3032INS TX19/1919Z TN16/2009Z LAST NO AMDS AFT 1920 NEXT 2109